Time;durP1;ratioP1;P1;durP2;ratioP2;P2;SDS_P1;SDS_P2;PMS_P1;PMS_P2;Temp;Humidity;BMP_temperature;BMP_pressure;BME280_temperature;BME280_humidity;BME280_pressure;Samples;Min_cycle;Max_cycle;Signal;HPM_P1;HPM_P2
2021/06/16 00:01:40;;;;;;;12.98;5.20;;;;;;;14.75;100.00;101793.38;3570419;40;20048;-63
2021/06/16 00:04:08;;;;;;;15.95;5.53;;;;;;;14.77;100.00;101796.84;3571336;40;20427;-63
2021/06/16 00:06:35;;;;;;;10.95;5.43;;;;;;;14.70;100.00;101782.97;3571831;40;20308;-63
2021/06/16 00:09:01;;;;;;;13.82;5.30;;;;;;;14.59;100.00;101786.63;3571345;40;20411;-64
2021/06/16 00:11:28;;;;;;;11.00;5.30;;;;;;;14.66;100.00;101790.53;3571182;40;20045;-64
2021/06/16 00:13:54;;;;;;;10.05;4.82;;;;;;;14.58;100.00;101786.78;3570833;40;20100;-64
2021/06/16 00:16:21;;;;;;;8.60;4.72;;;;;;;14.62;100.00;101782.81;3572428;40;20060;-62
2021/06/16 00:18:48;;;;;;;13.98;4.80;;;;;;;14.59;100.00;101777.63;3571287;40;20455;-63
2021/06/16 00:21:16;;;;;;;11.15;4.90;;;;;;;14.62;100.00;101778.25;3571977;40;20380;-64
2021/06/16 00:23:43;;;;;;;7.88;4.50;;;;;;;14.50;100.00;101777.50;3571422;40;20057;-62
2021/06/16 00:26:09;;;;;;;8.38;4.38;;;;;;;14.49;100.00;101783.06;3571649;40;20116;-63
2021/06/16 00:28:36;;;;;;;13.98;4.95;;;;;;;14.47;100.00;101777.78;3568786;40;20041;-62
2021/06/16 00:31:03;;;;;;;9.77;4.53;;;;;;;14.32;100.00;101771.03;3570914;40;20049;-64
2021/06/16 00:33:29;;;;;;;10.20;4.75;;;;;;;14.29;100.00;101766.72;3570837;40;20059;-63
2021/06/16 00:35:57;;;;;;;9.43;4.55;;;;;;;14.15;100.00;101765.28;3571496;40;20411;-64
2021/06/16 00:38:25;;;;;;;10.60;4.90;;;;;;;14.18;100.00;101765.00;3569592;40;20045;-64
2021/06/16 00:40:51;;;;;;;8.85;4.93;;;;;;;14.14;100.00;101771.69;3571062;40;20056;-62
2021/06/16 00:43:18;;;;;;;13.32;4.50;;;;;;;14.03;100.00;101763.69;3570505;40;20045;-63
2021/06/16 00:45:45;;;;;;;11.52;4.80;;;;;;;14.01;100.00;101761.09;3569698;40;20072;-62
2021/06/16 00:48:11;;;;;;;11.25;4.25;;;;;;;13.96;100.00;101771.47;3570776;40;20412;-63
2021/06/16 00:50:40;;;;;;;10.68;4.70;;;;;;;13.97;100.00;101769.63;3570900;40;20147;-63
2021/06/16 00:53:08;;;;;;;12.05;5.03;;;;;;;13.94;100.00;101768.06;3568451;40;20067;-64
2021/06/16 00:55:38;;;;;;;16.05;5.85;;;;;;;13.87;100.00;101756.06;3569820;40;20041;-64
2021/06/16 00:58:05;;;;;;;11.85;5.35;;;;;;;13.91;100.00;101754.78;3569819;40;20315;-64
2021/06/16 01:00:37;;;;;;;12.60;5.57;;;;;;;13.93;100.00;101758.22;3570920;40;20061;-64
2021/06/16 01:03:09;;;;;;;6.63;4.43;;;;;;;13.71;100.00;101743.03;3571215;40;20061;-65
2021/06/16 01:05:39;;;;;;;16.30;4.90;;;;;;;13.72;100.00;101746.56;3571502;40;20053;-64
2021/06/16 01:08:08;;;;;;;12.80;4.90;;;;;;;13.67;100.00;101755.94;3573182;23;20057;-63
2021/06/16 01:10:41;;;;;;;10.65;4.80;;;;;;;13.70;100.00;101759.41;3569952;40;20072;-63
2021/06/16 01:13:14;;;;;;;11.07;4.90;;;;;;;13.73;100.00;101748.28;3581444;40;20339;-62
2021/06/16 01:15:46;;;;;;;8.90;5.03;;;;;;;13.60;100.00;101745.81;3581965;40;20390;-63
2021/06/16 01:18:18;;;;;;;9.00;4.88;;;;;;;13.41;100.00;101750.13;3580307;40;20052;-63
2021/06/16 01:20:49;;;;;;;12.75;4.72;;;;;;;13.41;100.00;101746.56;3581631;40;20052;-64
2021/06/16 01:23:33;;;;;;;10.13;5.13;;;;;;;13.35;100.00;101753.34;3582095;40;20055;-63
2021/06/16 01:26:15;;;;;;;13.65;4.50;;;;;;;13.22;100.00;101745.41;3573127;40;20056;-64
2021/06/16 01:28:44;;;;;;;9.57;4.40;;;;;;;13.47;100.00;101737.91;3581145;40;20041;-63
2021/06/16 01:31:13;;;;;;;11.18;4.75;;;;;;;13.38;100.00;101739.56;3582240;40;20077;-65
2021/06/16 01:33:40;;;;;;;13.98;5.40;;;;;;;13.16;100.00;101729.69;3581778;40;20057;-63
2021/06/16 01:36:08;;;;;;;8.90;4.32;;;;;;;13.14;100.00;101729.00;3581953;40;20048;-63
2021/06/16 01:38:35;;;;;;;8.80;4.82;;;;;;;13.18;100.00;101733.16;3581811;40;20053;-63
2021/06/16 01:41:03;;;;;;;10.70;4.93;;;;;;;13.09;100.00;101725.84;3581401;40;20445;-64
2021/06/16 01:43:31;;;;;;;11.63;5.25;;;;;;;13.17;100.00;101720.63;3580080;40;20358;-63
2021/06/16 01:46:00;;;;;;;17.15;5.50;;;;;;;13.18;100.00;101716.94;3581055;40;20047;-63
2021/06/16 01:48:27;;;;;;;;;;;;;;;13.10;100.00;101720.31;3581602;40;20520;-64
2021/06/16 01:50:55;;;;;;;11.95;5.22;;;;;;;13.02;100.00;101721.94;3579748;40;20293;-63
2021/06/16 01:53:23;;;;;;;10.00;5.40;;;;;;;13.06;100.00;101721.53;3582146;40;20064;-63
2021/06/16 01:55:51;;;;;;;15.15;5.18;;;;;;;13.01;100.00;101722.91;3582384;40;20047;-65
2021/06/16 01:58:19;;;;;;;8.98;5.28;;;;;;;12.82;100.00;101716.38;3580081;40;20048;-65
2021/06/16 02:00:51;;;;;;;9.80;5.20;;;;;;;12.79;100.00;101714.81;3580302;40;20314;-64
2021/06/16 02:03:18;;;;;;;8.05;5.13;;;;;;;12.83;100.00;101707.28;3579096;40;20056;-64
2021/06/16 02:05:44;;;;;;;12.68;5.32;;;;;;;12.74;100.00;101724.28;3579970;40;20624;-64
2021/06/16 02:08:13;;;;;;;9.45;5.50;;;;;;;12.89;100.00;101712.16;3580551;40;20039;-63
2021/06/16 02:10:43;;;;;;;12.38;4.90;;;;;;;12.93;100.00;101713.63;3580866;40;20060;-64
2021/06/16 02:13:11;;;;;;;7.75;4.70;;;;;;;12.87;100.00;101714.16;3581389;40;20053;-63
2021/06/16 02:15:43;;;;;;;9.48;5.38;;;;;;;12.84;100.00;101709.00;3582320;40;20399;-64
2021/06/16 02:18:11;;;;;;;15.98;5.43;;;;;;;12.80;100.00;101715.66;3581056;40;20061;-65
2021/06/16 02:20:40;;;;;;;10.68;5.75;;;;;;;12.76;100.00;101716.88;3583520;40;20421;-63
2021/06/16 02:23:07;;;;;;;10.52;4.97;;;;;;;12.69;100.00;101704.88;3583156;40;20065;-64
2021/06/16 02:25:34;;;;;;;8.05;4.43;;;;;;;12.74;100.00;101708.06;3582967;40;20142;-64
2021/06/16 02:28:00;;;;;;;13.50;5.53;;;;;;;12.69;100.00;101707.59;3581300;40;20045;-64
2021/06/16 02:30:27;;;;;;;13.20;5.22;;;;;;;12.69;100.00;101700.34;3583325;40;20048;-64
2021/06/16 02:32:54;;;;;;;7.28;4.50;;;;;;;12.69;100.00;101704.88;3583354;40;20036;-64
2021/06/16 02:35:22;;;;;;;10.98;5.32;;;;;;;12.69;100.00;101702.19;3582803;40;20052;-64
2021/06/16 02:37:53;;;;;;;7.13;5.20;;;;;;;12.55;100.00;101698.81;3582557;40;20047;-64
2021/06/16 02:40:20;;;;;;;12.23;5.70;;;;;;;12.46;100.00;101688.78;3582941;40;20058;-65
2021/06/16 02:42:50;;;;;;;11.45;6.10;;;;;;;12.42;100.00;101695.41;3581936;40;20644;-64
2021/06/16 02:45:18;;;;;;;12.98;5.82;;;;;;;12.53;100.00;101687.28;3582761;40;20084;-64
2021/06/16 02:47:49;;;;;;;10.85;6.05;;;;;;;12.48;100.00;101683.25;3583249;40;20044;-64
2021/06/16 02:50:19;;;;;;;9.70;5.75;;;;;;;12.46;100.00;101675.28;3581675;40;20316;-64
2021/06/16 02:52:48;;;;;;;13.93;6.25;;;;;;;12.48;100.00;101686.78;3583829;40;20071;-63
2021/06/16 02:55:15;;;;;;;10.02;5.53;;;;;;;12.55;100.00;101677.19;3581060;40;20055;-63
2021/06/16 02:57:45;;;;;;;9.00;6.03;;;;;;;12.62;100.00;101678.41;3582687;40;20462;-62
2021/06/16 03:00:15;;;;;;;9.20;5.25;;;;;;;12.62;100.00;101678.41;3582055;40;20075;-63
2021/06/16 03:02:45;;;;;;;10.30;6.07;;;;;;;12.52;100.00;101663.13;3583210;40;20421;-63
2021/06/16 03:05:14;;;;;;;10.30;6.35;;;;;;;12.37;100.00;101674.19;3581545;40;20053;-65
2021/06/16 03:07:42;;;;;;;11.18;6.55;;;;;;;12.50;100.00;101671.34;3583083;40;20049;-66
2021/06/16 03:10:12;;;;;;;13.18;5.88;;;;;;;12.46;100.00;101660.94;3581865;40;20308;-63
2021/06/16 03:12:40;;;;;;;16.27;7.10;;;;;;;12.43;100.00;101667.44;3582137;40;20376;-64
2021/06/16 03:15:08;;;;;;;11.80;6.43;;;;;;;12.51;100.00;101659.53;3582888;40;20053;-63
2021/06/16 03:17:36;;;;;;;11.27;6.20;;;;;;;12.62;100.00;101666.75;3582498;40;20578;-63
2021/06/16 03:20:05;;;;;;;11.57;6.68;;;;;;;12.71;100.00;101665.13;3582136;40;20053;-64
2021/06/16 03:22:32;;;;;;;10.05;5.50;;;;;;;12.75;100.00;101671.94;3583008;40;20041;-64
2021/06/16 03:24:59;;;;;;;10.93;5.70;;;;;;;12.69;100.00;101672.47;3582625;40;20061;-63
2021/06/16 03:27:28;;;;;;;11.65;6.40;;;;;;;12.68;100.00;101674.31;3581759;40;20044;-64
2021/06/16 03:29:56;;;;;;;13.52;5.93;;;;;;;12.71;100.00;101668.66;3581609;40;20070;-65
2021/06/16 03:32:24;;;;;;;11.40;5.38;;;;;;;12.83;100.00;101672.16;3581253;40;20092;-64
2021/06/16 03:34:51;;;;;;;10.98;6.18;;;;;;;12.89;100.00;101663.53;3581405;40;20044;-64
2021/06/16 03:37:18;;;;;;;11.90;6.60;;;;;;;12.91;100.00;101664.28;3581150;40;20065;-64
2021/06/16 03:39:46;;;;;;;9.35;5.68;;;;;;;12.88;100.00;101661.84;3581934;40;20047;-63
2021/06/16 03:42:14;;;;;;;11.80;5.53;;;;;;;12.95;100.00;101665.69;3582856;40;20322;-64
2021/06/16 03:44:43;;;;;;;9.20;5.82;;;;;;;12.96;100.00;101663.88;3581954;40;20077;-64
2021/06/16 03:47:11;;;;;;;12.32;6.35;;;;;;;13.03;100.00;101664.19;3581643;40;20068;-64
2021/06/16 03:49:40;;;;;;;13.95;5.97;;;;;;;13.05;100.00;101656.81;3580451;40;20049;-64
2021/06/16 03:52:08;;;;;;;12.93;6.13;;;;;;;13.07;100.00;101660.22;3581830;40;20061;-64
2021/06/16 03:54:37;;;;;;;9.73;5.70;;;;;;;13.16;100.00;101662.13;3581382;40;20469;-65
2021/06/16 03:57:03;;;;;;;14.82;7.03;;;;;;;13.27;100.00;101663.91;3582746;40;20037;-65
2021/06/16 03:59:30;;;;;;;10.15;5.70;;;;;;;13.25;100.00;101657.75;3581828;40;20354;-63
2021/06/16 04:01:58;;;;;;;12.30;6.15;;;;;;;13.24;100.00;101656.91;3581359;40;20080;-63
2021/06/16 04:04:25;;;;;;;10.98;5.57;;;;;;;13.30;100.00;101650.13;3581548;40;20056;-64
2021/06/16 04:06:52;;;;;;;16.50;6.28;;;;;;;13.33;100.00;101652.56;3582214;40;20036;-64
2021/06/16 04:09:20;;;;;;;16.60;6.13;;;;;;;13.34;100.00;101638.09;3581880;40;20056;-64
2021/06/16 04:11:47;;;;;;;10.88;5.35;;;;;;;13.39;100.00;101638.53;3582901;40;20079;-65
2021/06/16 04:14:14;;;;;;;12.43;6.13;;;;;;;13.56;100.00;101639.75;3581327;40;20343;-64
2021/06/16 04:16:42;;;;;;;10.77;6.10;;;;;;;13.57;100.00;101630.63;3582809;40;20714;-63
2021/06/16 04:19:11;;;;;;;12.95;6.20;;;;;;;13.51;100.00;101633.88;3581188;40;20048;-64
2021/06/16 04:21:38;;;;;;;9.05;5.78;;;;;;;13.55;100.00;101632.63;3581702;40;20155;-66
2021/06/16 04:24:05;;;;;;;13.40;6.00;;;;;;;13.60;100.00;101630.38;3580623;40;20051;-64
2021/06/16 04:26:31;;;;;;;14.95;5.78;;;;;;;13.66;100.00;101628.94;3581566;40;20606;-63
2021/06/16 04:28:58;;;;;;;11.15;6.18;;;;;;;13.70;100.00;101634.94;3582579;40;20056;-62
2021/06/16 04:31:24;;;;;;;10.73;6.03;;;;;;;13.82;100.00;101633.84;3580928;40;20055;-65
2021/06/16 04:33:51;;;;;;;10.95;6.28;;;;;;;13.75;100.00;101638.09;3582447;40;20053;-63
2021/06/16 04:36:18;;;;;;;12.20;6.68;;;;;;;13.71;100.00;101631.25;3580558;40;20041;-64
2021/06/16 04:38:45;;;;;;;15.18;6.00;;;;;;;13.79;100.00;101634.97;3581110;40;20047;-63
2021/06/16 04:41:11;;;;;;;11.02;6.07;;;;;;;13.84;100.00;101626.44;3581863;40;20041;-65
2021/06/16 04:43:38;;;;;;;11.45;6.25;;;;;;;13.89;100.00;101626.03;3582287;40;20048;-63
2021/06/16 04:46:04;;;;;;;13.07;6.10;;;;;;;13.95;100.00;101634.44;3581656;40;20046;-65
2021/06/16 04:48:31;;;;;;;9.65;5.60;;;;;;;14.08;100.00;101622.50;3581248;40;20310;-64
2021/06/16 04:50:57;;;;;;;12.88;5.80;;;;;;;14.18;100.00;101624.22;3581576;40;20078;-63
2021/06/16 04:53:25;;;;;;;9.55;6.00;;;;;;;14.50;100.00;101623.09;3580350;40;20064;-62
2021/06/16 04:55:52;;;;;;;11.52;5.45;;;;;;;15.22;100.00;101619.97;3580612;40;20048;-63
2021/06/16 04:58:18;;;;;;;12.10;5.45;;;;;;;15.37;100.00;101618.50;3581908;40;20060;-67
2021/06/16 05:00:45;;;;;;;7.57;5.53;;;;;;;16.03;100.00;101608.47;3581901;40;20041;-63
2021/06/16 05:03:11;;;;;;;7.68;4.78;;;;;;;16.67;100.00;101602.94;3580855;40;20036;-63
2021/06/16 05:05:38;;;;;;;11.98;5.13;;;;;;;17.63;100.00;101610.13;3579842;40;20315;-63
2021/06/16 05:08:05;;;;;;;9.10;4.95;;;;;;;18.87;100.00;101602.16;3580913;40;20047;-63
2021/06/16 05:10:32;;;;;;;9.32;4.85;;;;;;;18.70;100.00;101604.03;3580664;40;20393;-63
2021/06/16 05:12:59;;;;;;;11.98;4.57;;;;;;;17.97;100.00;101605.69;3581021;40;20066;-65
2021/06/16 05:15:25;;;;;;;10.82;5.07;;;;;;;16.41;100.00;101606.44;3582108;40;20317;-63
2021/06/16 05:17:52;;;;;;;9.40;4.55;;;;;;;16.18;100.00;101610.63;3581166;40;20055;-63
2021/06/16 05:20:18;;;;;;;8.18;4.63;;;;;;;16.07;100.00;101612.56;3581514;40;20080;-63
2021/06/16 05:22:48;;;;;;;10.77;5.15;;;;;;;15.99;100.00;101611.63;3582300;40;20410;-64
2021/06/16 05:25:16;;;;;;;9.85;4.60;;;;;;;16.01;100.00;101599.59;3582668;40;20460;-67
2021/06/16 05:27:44;;;;;;;14.30;5.60;;;;;;;15.69;100.00;101608.22;3582856;40;20056;-65
2021/06/16 05:30:12;;;;;;;9.40;5.40;;;;;;;15.68;100.00;101606.50;3582816;40;20374;-65
2021/06/16 05:32:38;;;;;;;8.55;4.50;;;;;;;15.90;100.00;101599.81;3582595;40;20055;-64
2021/06/16 05:35:06;;;;;;;11.35;4.97;;;;;;;16.26;100.00;101594.44;3581797;40;20052;-64
2021/06/16 05:37:32;;;;;;;9.98;4.93;;;;;;;16.25;100.00;101592.72;3583038;40;20337;-64
2021/06/16 05:39:59;;;;;;;8.73;4.65;;;;;;;16.32;100.00;101592.97;3582811;40;20051;-65
2021/06/16 05:42:25;;;;;;;7.68;4.13;;;;;;;16.51;100.00;101592.78;3581984;40;20433;-64
2021/06/16 05:44:53;;;;;;;12.55;4.63;;;;;;;16.25;100.00;101599.00;3582784;40;20045;-63
2021/06/16 05:47:19;;;;;;;9.15;4.43;;;;;;;16.19;100.00;101594.19;3582179;40;20076;-66
2021/06/16 05:49:46;;;;;;;12.13;4.63;;;;;;;16.39;100.00;101589.44;3584024;40;20306;-64
2021/06/16 05:52:13;;;;;;;7.00;4.20;;;;;;;16.54;100.00;101592.47;3579329;40;20344;-65
2021/06/16 05:54:39;;;;;;;8.50;4.10;;;;;;;16.59;100.00;101591.97;3584494;40;20339;-64
2021/06/16 05:57:06;;;;;;;9.73;3.83;;;;;;;16.64;100.00;101587.78;3583667;40;20052;-65
2021/06/16 05:59:34;;;;;;;10.25;4.13;;;;;;;16.84;100.00;101598.44;3584193;40;20056;-65
2021/06/16 06:02:02;;;;;;;8.82;3.97;;;;;;;17.05;100.00;101598.13;3583687;40;20052;-63
2021/06/16 06:04:29;;;;;;;8.38;3.33;;;;;;;17.22;100.00;101590.91;3584103;40;20036;-64
2021/06/16 06:06:55;;;;;;;9.32;3.80;;;;;;;17.30;100.00;101584.66;3583332;40;20066;-62
2021/06/16 06:09:22;;;;;;;8.13;3.53;;;;;;;17.37;100.00;101582.97;3583547;40;20078;-63
2021/06/16 06:11:48;;;;;;;13.07;4.05;;;;;;;17.38;100.00;101583.84;3583840;40;20312;-62
2021/06/16 06:14:15;;;;;;;7.90;3.70;;;;;;;17.48;100.00;101579.13;3583447;40;20068;-63
2021/06/16 06:16:41;;;;;;;7.95;3.85;;;;;;;17.71;100.00;101582.09;3583821;40;20052;-64
2021/06/16 06:19:09;;;;;;;7.82;3.65;;;;;;;18.03;100.00;101572.31;3583604;40;20058;-62
2021/06/16 06:21:35;;;;;;;6.47;3.50;;;;;;;18.45;100.00;101565.88;3584440;40;20092;-64
2021/06/16 06:24:04;;;;;;;7.68;3.33;;;;;;;18.57;100.00;101569.13;3583240;40;20102;-63
2021/06/16 06:26:30;;;;;;;8.00;2.83;;;;;;;18.81;100.00;101561.91;3584433;40;20088;-63
2021/06/16 06:28:57;;;;;;;6.18;3.30;;;;;;;19.08;100.00;101568.91;3584600;40;20048;-63
2021/06/16 06:31:24;;;;;;;7.63;3.13;;;;;;;19.53;100.00;101556.41;3583441;40;20076;-64
2021/06/16 06:33:50;;;;;;;7.43;3.03;;;;;;;19.68;100.00;101561.97;3584272;40;20045;-63
2021/06/16 06:36:19;;;;;;;10.40;3.03;;;;;;;19.53;100.00;101556.41;3584224;40;20366;-64
2021/06/16 06:38:45;;;;;;;;;;;;;;;19.70;100.00;101559.03;3585359;40;20048;-64
2021/06/16 06:41:12;;;;;;;6.75;2.92;;;;;;;19.68;100.00;101556.50;3583191;40;19941;-63
2021/06/16 06:43:39;;;;;;;8.20;3.45;;;;;;;19.95;100.00;101544.25;3584496;40;20145;-64
2021/06/16 06:46:05;;;;;;;10.18;2.70;;;;;;;20.21;100.00;101542.19;3583791;40;20059;-63
2021/06/16 06:48:32;;;;;;;10.40;2.70;;;;;;;20.86;100.00;101548.09;3584038;40;20052;-64
2021/06/16 06:50:58;;;;;;;6.35;2.83;;;;;;;20.79;100.00;101537.06;3584049;40;20055;-65
2021/06/16 06:53:28;;;;;;;5.20;2.65;;;;;;;20.86;100.00;101538.00;3583644;40;20052;-66
2021/06/16 06:55:55;;;;;;;7.70;2.47;;;;;;;21.04;100.00;101539.50;3584238;40;20075;-63
2021/06/16 06:58:22;;;;;;;3.80;2.45;;;;;;;21.13;100.00;101549.34;3583764;40;20061;-64
2021/06/16 07:00:48;;;;;;;4.95;2.40;;;;;;;21.11;100.00;101535.00;3583724;40;20049;-64
2021/06/16 07:03:15;;;;;;;8.18;2.90;;;;;;;21.08;100.00;101538.97;3583226;40;20056;-63
2021/06/16 07:05:41;;;;;;;4.57;2.30;;;;;;;20.87;100.00;101534.22;3583816;40;20046;-63
2021/06/16 07:08:08;;;;;;;4.60;2.30;;;;;;;21.11;100.00;101526.78;3583302;40;20045;-62
2021/06/16 07:10:35;;;;;;;6.93;2.40;;;;;;;21.63;100.00;101520.31;3583431;40;20041;-63
2021/06/16 07:13:03;;;;;;;6.55;2.25;;;;;;;21.72;100.00;101515.56;3583118;40;20085;-64
2021/06/16 07:15:30;;;;;;;8.68;2.35;;;;;;;21.87;100.00;101515.50;3583855;40;20048;-65
2021/06/16 07:17:56;;;;;;;5.28;2.45;;;;;;;21.75;100.00;101522.56;3583647;40;20075;-64
2021/06/16 07:20:23;;;;;;;3.72;2.22;;;;;;;21.87;100.00;101510.03;3583748;40;20059;-64
2021/06/16 07:22:50;;;;;;;5.60;2.08;;;;;;;21.98;100.00;101512.25;3583997;40;20048;-65
2021/06/16 07:25:18;;;;;;;4.25;2.10;;;;;;;22.21;100.00;101508.44;3583803;40;20089;-63
2021/06/16 07:27:46;;;;;;;4.95;2.03;;;;;;;22.79;100.00;101512.91;3583718;40;20060;-63
2021/06/16 07:30:14;;;;;;;6.70;2.40;;;;;;;22.27;94.27;101501.31;3583727;40;20088;-61
2021/06/16 07:32:42;;;;;;;3.70;1.85;;;;;;;22.48;100.00;101504.06;3584196;40;20553;-62
2021/06/16 07:35:10;;;;;;;7.78;2.22;;;;;;;22.48;99.41;101503.19;3583502;40;20080;-62
2021/06/16 07:37:37;;;;;;;4.60;2.30;;;;;;;22.22;98.25;101496.44;3584444;40;20075;-63
2021/06/16 07:40:05;;;;;;;7.43;2.15;;;;;;;22.84;94.06;101493.97;3583766;40;20388;-64
2021/06/16 07:42:31;;;;;;;12.63;2.35;;;;;;;22.73;93.50;101489.84;3584010;40;20063;-63
2021/06/16 07:44:59;;;;;;;4.00;2.10;;;;;;;22.57;95.67;101496.53;3583565;40;20069;-63
2021/06/16 07:47:26;;;;;;;5.35;2.03;;;;;;;22.89;98.35;101484.06;3582825;40;20056;-64
2021/06/16 07:49:52;;;;;;;4.47;1.92;;;;;;;23.32;94.31;101484.91;3583394;40;20283;-63
2021/06/16 07:52:19;;;;;;;7.13;2.47;;;;;;;23.64;93.92;101483.31;3583279;40;20044;-65
2021/06/16 07:54:45;;;;;;;6.57;2.20;;;;;;;23.61;90.78;101487.34;3583660;40;20067;-63
2021/06/16 07:57:12;;;;;;;4.93;2.47;;;;;;;23.56;92.72;101478.03;3583223;40;20068;-62
2021/06/16 07:59:38;;;;;;;6.30;2.55;;;;;;;23.79;91.09;101481.25;3583770;40;20088;-63
2021/06/16 08:02:06;;;;;;;5.32;2.20;;;;;;;23.79;81.81;101477.63;3582363;40;20331;-62
2021/06/16 08:04:37;;;;;;;3.85;2.30;;;;;;;23.67;79.28;101476.56;3583757;40;20064;-63
2021/06/16 08:07:04;;;;;;;6.22;2.70;;;;;;;23.60;84.39;101471.03;3583043;40;20059;-63
2021/06/16 08:09:31;;;;;;;3.35;2.10;;;;;;;23.62;85.05;101474.44;3582900;40;20401;-63
2021/06/16 08:11:57;;;;;;;4.60;2.25;;;;;;;23.78;86.20;101473.22;3583252;40;20076;-63
2021/06/16 08:14:24;;;;;;;4.93;2.35;;;;;;;23.95;79.36;101466.28;3582914;40;20053;-63
2021/06/16 08:16:50;;;;;;;6.13;2.30;;;;;;;24.10;83.99;101463.31;3583462;40;20051;-63
2021/06/16 08:19:18;;;;;;;2.80;2.22;;;;;;;24.38;78.87;101467.75;3582429;40;20121;-64
2021/06/16 08:21:44;;;;;;;4.38;2.25;;;;;;;24.36;77.20;101475.34;3583450;40;20396;-64
2021/06/16 08:24:11;;;;;;;4.13;2.15;;;;;;;23.93;83.11;101468.38;3583091;40;20060;-65
2021/06/16 08:26:37;;;;;;;4.88;2.50;;;;;;;24.30;75.01;101470.72;3583358;40;20064;-63
2021/06/16 08:31:34;;;;;;;5.53;3.22;;;;;;;24.76;72.68;101460.72;3617829;22;20045;-64
2021/06/16 08:34:00;;;;;;;6.50;2.53;;;;;;;24.61;74.62;101460.97;3579628;40;20052;-64
2021/06/16 08:36:28;;;;;;;5.35;2.67;;;;;;;24.92;73.97;101464.91;3579145;40;20053;-65
2021/06/16 08:38:55;;;;;;;5.80;2.30;;;;;;;25.17;74.02;101463.09;3579381;40;20125;-64
2021/06/16 08:41:22;;;;;;;4.97;2.38;;;;;;;24.77;77.07;101451.41;3579364;39;20106;-64
2021/06/16 08:43:48;;;;;;;5.43;2.88;;;;;;;24.53;83.50;101451.00;3580018;40;20299;-65
2021/06/16 08:46:16;;;;;;;5.45;2.40;;;;;;;24.94;75.04;101457.25;3578297;40;20104;-64
2021/06/16 08:48:44;;;;;;;6.28;2.97;;;;;;;25.35;73.18;101450.53;3579422;39;20051;-64
2021/06/16 08:51:15;;;;;;;5.00;3.15;;;;;;;25.62;65.98;101455.91;3579424;40;20087;-64
2021/06/16 08:53:44;;;;;;;4.50;2.70;;;;;;;25.98;63.86;101446.09;3579527;40;20315;-65
2021/06/16 08:56:11;;;;;;;5.35;3.00;;;;;;;25.83;67.76;101436.22;3578584;40;20064;-64
2021/06/16 08:58:39;;;;;;;3.92;2.30;;;;;;;25.88;69.55;101439.19;3579060;39;20055;-64
2021/06/16 09:01:07;;;;;;;5.73;2.80;;;;;;;25.31;77.88;101441.06;3579462;40;20045;-63
2021/06/16 09:03:34;;;;;;;6.38;2.78;;;;;;;25.71;78.48;101435.28;3579006;40;20278;-62
2021/06/16 09:06:05;;;;;;;7.30;3.47;;;;;;;25.34;70.96;101438.69;3579656;40;20365;-63
2021/06/16 09:08:31;;;;;;;7.28;3.00;;;;;;;25.64;71.28;101435.31;3578185;40;20057;-64
2021/06/16 09:10:59;;;;;;;5.43;2.75;;;;;;;25.67;65.80;101429.34;3578719;40;20491;-64
2021/06/16 09:13:28;;;;;;;5.30;3.33;;;;;;;25.68;64.71;101435.72;3577046;40;20352;-66
2021/06/16 09:15:55;;;;;;;4.70;2.90;;;;;;;26.10;64.45;101433.28;3578804;40;20062;-64
2021/06/16 09:18:23;;;;;;;3.92;2.70;;;;;;;25.76;70.14;101437.38;3577121;40;20068;-64
2021/06/16 09:20:54;;;;;;;7.85;2.90;;;;;;;26.25;62.18;101440.38;3579203;40;20327;-64
2021/06/16 09:23:23;;;;;;;4.47;2.58;;;;;;;25.97;67.49;101427.84;3579025;40;20445;-64
2021/06/16 09:26:12;;;;;;;5.43;2.90;;;;;;;25.88;71.36;101433.66;3578054;40;20056;-65
2021/06/16 09:28:40;;;;;;;2.95;2.65;;;;;;;25.82;65.98;101431.78;3577866;40;20053;-65
2021/06/16 09:31:07;;;;;;;5.03;2.60;;;;;;;25.83;62.84;101422.44;3578668;39;20044;-63
2021/06/16 09:33:35;;;;;;;7.65;3.03;;;;;;;25.47;68.71;101424.00;3579397;40;20268;-63
2021/06/16 09:36:09;;;;;;;4.97;2.45;;;;;;;26.43;59.58;101426.63;3577883;40;20038;-64
2021/06/16 09:38:35;;;;;;;4.22;2.70;;;;;;;26.35;59.84;101432.41;3579479;39;20138;-63
2021/06/16 09:41:02;;;;;;;4.22;2.20;;;;;;;26.20;70.22;101424.50;3578066;40;20074;-65
2021/06/16 09:43:31;;;;;;;6.57;2.70;;;;;;;26.74;61.89;101425.66;3578148;40;20057;-63
2021/06/16 09:45:59;;;;;;;4.95;2.67;;;;;;;26.28;60.16;101412.31;3578558;40;20061;-64
2021/06/16 09:48:32;;;;;;;5.75;2.40;;;;;;;26.53;59.78;101410.38;3578586;40;20047;-62
2021/06/16 09:51:17;;;;;;;4.80;2.35;;;;;;;26.81;58.45;101411.78;3578862;40;20048;-64
2021/06/16 09:54:18;;;;;;;3.70;2.17;;;;;;;27.22;60.03;101415.72;3577542;40;20408;-64
2021/06/16 09:56:52;;;;;;;5.13;2.47;;;;;;;26.97;55.62;101414.97;3570725;40;20037;-64
2021/06/16 10:02:17;;;;;;;7.22;2.75;;;;;;;27.58;58.75;101407.56;3598904;39;20124;-66
2021/06/16 10:04:46;;;;;;;3.78;2.50;;;;;;;28.07;53.34;101404.66;3596195;39;20423;-62
2021/06/16 10:07:18;;;;;;;3.67;2.38;;;;;;;28.41;53.27;101396.56;3595811;39;20043;-66
2021/06/16 10:09:54;;;;;;;5.22;2.33;;;;;;;28.35;54.67;101403.09;3596736;39;20044;-63
2021/06/16 10:12:22;;;;;;;4.70;2.47;;;;;;;27.90;54.76;101399.81;3596406;39;20543;-65
2021/06/16 10:14:49;;;;;;;5.20;2.85;;;;;;;27.36;53.80;101401.72;3596461;39;20054;-63
2021/06/16 10:17:17;;;;;;;3.83;2.53;;;;;;;27.75;52.49;101386.44;3595966;39;20059;-63
2021/06/16 10:19:44;;;;;;;7.22;2.58;;;;;;;27.74;55.75;101387.50;3595770;39;20152;-63
2021/06/16 10:22:11;;;;;;;5.65;2.40;;;;;;;28.48;52.06;101381.50;3595972;39;20056;-64
2021/06/16 10:24:38;;;;;;;3.47;2.50;;;;;;;28.25;48.67;101374.09;3596627;39;20462;-64
2021/06/16 10:27:08;;;;;;;5.45;2.47;;;;;;;28.14;52.03;101374.94;3595856;39;20055;-66
2021/06/16 10:29:38;;;;;;;5.80;2.47;;;;;;;27.62;54.19;101373.66;3596928;39;20040;-65
2021/06/16 10:32:05;;;;;;;9.18;2.60;;;;;;;27.77;52.96;101369.59;3595982;39;20036;-63
2021/06/16 10:34:57;;;;;;;4.03;2.60;;;;;;;28.00;53.93;101367.97;3596674;39;20104;-63
2021/06/16 10:37:25;;;;;;;4.38;2.40;;;;;;;28.46;52.65;101363.44;3596297;39;20337;-63
2021/06/16 10:40:35;;;;;;;3.65;2.30;;;;;;;28.23;54.46;101354.09;3596887;39;20088;-64
2021/06/16 10:43:29;;;;;;;5.97;2.53;;;;;;;28.82;47.30;101353.16;3595529;39;20027;-65
2021/06/16 10:46:01;;;;;;;3.35;2.40;;;;;;;29.44;46.74;101349.63;3596357;39;20044;-64
2021/06/16 10:48:46;;;;;;;4.07;2.10;;;;;;;29.20;48.11;101348.91;3597350;39;20413;-64
2021/06/16 10:51:25;;;;;;;3.55;2.30;;;;;;;28.79;48.76;101346.19;3595232;39;20036;-65
2021/06/16 10:54:14;;;;;;;4.50;2.45;;;;;;;28.90;47.52;101355.56;3596431;39;20315;-67
2021/06/16 10:56:43;;;;;;;3.10;2.80;;;;;;;28.45;48.46;101359.03;3596208;39;20107;-66
2021/06/16 10:59:10;;;;;;;4.15;2.20;;;;;;;28.10;52.14;101354.34;3595754;39;20133;-64
2021/06/16 11:01:47;;;;;;;3.45;2.28;;;;;;;28.24;50.76;101358.56;3595398;39;20062;-64
2021/06/16 11:04:26;;;;;;;4.63;2.53;;;;;;;28.98;51.74;101357.91;3594949;39;20289;-65
2021/06/16 11:06:54;;;;;;;5.55;2.40;;;;;;;29.16;46.88;101350.47;3595771;39;20052;-65
2021/06/16 11:09:54;;;;;;;5.90;2.60;;;;;;;29.08;45.85;101346.19;3595799;39;20338;-67
2021/06/16 11:12:31;;;;;;;3.63;1.98;;;;;;;29.60;46.70;101350.72;3592444;39;20068;-64
2021/06/16 11:14:58;;;;;;;3.40;2.22;;;;;;;29.74;47.15;101348.47;3588575;39;20091;-65
2021/06/16 11:17:44;;;;;;;4.70;2.60;;;;;;;29.80;48.85;101341.91;3589094;39;20051;-64
2021/06/16 11:20:14;;;;;;;4.75;2.90;;;;;;;29.88;45.11;101337.88;3589091;39;20067;-64
2021/06/16 11:22:48;;;;;;;3.53;2.78;;;;;;;29.57;47.71;101337.38;3589785;40;20051;-64
2021/06/16 11:25:29;;;;;;;7.55;2.65;;;;;;;29.80;44.33;101330.81;3588643;39;20044;-64
2021/06/16 11:28:10;;;;;;;4.97;2.60;;;;;;;29.44;44.14;101332.16;3589439;39;20059;-64
2021/06/16 11:30:39;;;;;;;4.50;2.67;;;;;;;29.10;44.73;101330.13;3588975;40;20130;-66